sensor_id;sensor_type;location;lat;lon;timestamp;pressure;altitude;pressure_sealevel;temperature;humidity
72038;BME280;59900;50.788;12.904;2023-11-18T00:00:21;98069.63;;;3.09;100.00
72038;BME280;59900;50.788;12.904;2023-11-18T00:02:47;98079.19;;;3.08;100.00
72038;BME280;59900;50.788;12.904;2023-11-18T00:05:12;98079.31;;;3.07;100.00
72038;BME280;59900;50.788;12.904;2023-11-18T00:07:39;98073.97;;;3.08;100.00
72038;BME280;59900;50.788;12.904;2023-11-18T00:10:05;98078.13;;;3.11;100.00
72038;BME280;59900;50.788;12.904;2023-11-18T00:12:31;98087.53;;;3.12;100.00
72038;BME280;59900;50.788;12.904;2023-11-18T00:14:56;98079.72;;;3.12;100.00
72038;BME280;59900;50.788;12.904;2023-11-18T00:17:22;98086.31;;;3.16;100.00
72038;BME280;59900;50.788;12.904;2023-11-18T00:19:47;98091.50;;;3.16;100.00
72038;BME280;59900;50.788;12.904;2023-11-18T00:22:13;98091.34;;;3.17;100.00
72038;BME280;59900;50.788;12.904;2023-11-18T00:24:38;98094.66;;;3.19;100.00
72038;BME280;59900;50.788;12.904;2023-11-18T00:27:04;98098.19;;;3.18;100.00
72038;BME280;59900;50.788;12.904;2023-11-18T00:29:32;98104.88;;;3.21;100.00
72038;BME280;59900;50.788;12.904;2023-11-18T00:31:58;98112.69;;;3.21;100.00
72038;BME280;59900;50.788;12.904;2023-11-18T00:34:23;98102.28;;;3.21;100.00
72038;BME280;59900;50.788;12.904;2023-11-18T00:36:48;98105.72;;;3.21;100.00
72038;BME280;59900;50.788;12.904;2023-11-18T00:39:14;98106.53;;;3.22;100.00
72038;BME280;59900;50.788;12.904;2023-11-18T00:41:39;98109.13;;;3.22;100.00
72038;BME280;59900;50.788;12.904;2023-11-18T00:44:04;98115.44;;;3.19;100.00
72038;BME280;59900;50.788;12.904;2023-11-18T00:46:32;98119.38;;;3.23;100.00
72038;BME280;59900;50.788;12.904;2023-11-18T00:49:01;98115.28;;;3.21;100.00
72038;BME280;59900;50.788;12.904;2023-11-18T00:51:26;98118.03;;;3.19;100.00
72038;BME280;59900;50.788;12.904;2023-11-18T00:53:52;98124.16;;;3.18;100.00
72038;BME280;59900;50.788;12.904;2023-11-18T00:56:20;98125.66;;;3.21;100.00
72038;BME280;59900;50.788;12.904;2023-11-18T00:58:47;98118.03;;;3.19;100.00
72038;BME280;59900;50.788;12.904;2023-11-18T01:01:12;98116.94;;;3.22;99.80
72038;BME280;59900;50.788;12.904;2023-11-18T01:03:38;98123.78;;;3.23;99.89
72038;BME280;59900;50.788;12.904;2023-11-18T01:06:04;98119.38;;;3.23;99.89
72038;BME280;59900;50.788;12.904;2023-11-18T01:08:31;98134.84;;;3.25;99.77
72038;BME280;59900;50.788;12.904;2023-11-18T01:10:56;98126.06;;;3.26;99.41
72038;BME280;59900;50.788;12.904;2023-11-18T01:13:21;98123.34;;;3.27;99.87
72038;BME280;59900;50.788;12.904;2023-11-18T01:15:48;98128.94;;;3.32;99.92
72038;BME280;59900;50.788;12.904;2023-11-18T01:18:13;98120.47;;;3.30;99.24
72038;BME280;59900;50.788;12.904;2023-11-18T01:20:38;98128.41;;;3.29;99.13
72038;BME280;59900;50.788;12.904;2023-11-18T01:23:03;98125.94;;;3.27;99.07
72038;BME280;59900;50.788;12.904;2023-11-18T01:25:29;98128.53;;;3.27;99.00
72038;BME280;59900;50.788;12.904;2023-11-18T01:27:54;98131.69;;;3.31;99.15
72038;BME280;59900;50.788;12.904;2023-11-18T01:30:20;98136.91;;;3.31;98.76
72038;BME280;59900;50.788;12.904;2023-11-18T01:32:45;98132.91;;;3.27;98.64
72038;BME280;59900;50.788;12.904;2023-11-18T01:35:11;98141.00;;;3.33;99.10
72038;BME280;59900;50.788;12.904;2023-11-18T01:37:37;98140.56;;;3.38;98.74
72038;BME280;59900;50.788;12.904;2023-11-18T01:40:03;98142.22;;;3.39;98.70
72038;BME280;59900;50.788;12.904;2023-11-18T01:42:32;98133.88;;;3.35;98.54
72038;BME280;59900;50.788;12.904;2023-11-18T01:44:58;98138.50;;;3.32;98.05
72038;BME280;59900;50.788;12.904;2023-11-18T01:47:25;98137.16;;;3.28;98.03
72038;BME280;59900;50.788;12.904;2023-11-18T01:49:52;98134.56;;;3.28;98.21
72038;BME280;59900;50.788;12.904;2023-11-18T01:52:17;98138.66;;;3.30;98.58
72038;BME280;59900;50.788;12.904;2023-11-18T01:54:44;98143.19;;;3.28;97.94
72038;BME280;59900;50.788;12.904;2023-11-18T01:57:10;98144.97;;;3.28;98.19
72038;BME280;59900;50.788;12.904;2023-11-18T01:59:36;98147.56;;;3.28;98.71
72038;BME280;59900;50.788;12.904;2023-11-18T02:02:03;98143.47;;;3.25;98.60
72038;BME280;59900;50.788;12.904;2023-11-18T02:04:29;98149.59;;;3.24;98.51
72038;BME280;59900;50.788;12.904;2023-11-18T02:06:56;98143.84;;;3.21;98.88
72038;BME280;59900;50.788;12.904;2023-11-18T02:09:22;98144.41;;;3.24;98.96
72038;BME280;59900;50.788;12.904;2023-11-18T02:12:00;98145.06;;;3.26;98.93
72038;BME280;59900;50.788;12.904;2023-11-18T02:14:31;98143.19;;;3.28;99.10
72038;BME280;59900;50.788;12.904;2023-11-18T02:16:59;98149.72;;;3.32;99.07
72038;BME280;59900;50.788;12.904;2023-11-18T02:19:28;98151.66;;;3.30;98.87
72038;BME280;59900;50.788;12.904;2023-11-18T02:21:55;98149.31;;;3.27;98.72
72038;BME280;59900;50.788;12.904;2023-11-18T02:24:29;98149.59;;;3.24;98.80
72038;BME280;59900;50.788;12.904;2023-11-18T02:27:00;98149.88;;;3.21;98.76
72038;BME280;59900;50.788;12.904;2023-11-18T02:29:27;98154.13;;;3.22;99.12
72038;BME280;59900;50.788;12.904;2023-11-18T02:31:58;98155.06;;;3.21;99.17
72038;BME280;59900;50.788;12.904;2023-11-18T02:34:29;98157.94;;;3.18;99.37
72038;BME280;59900;50.788;12.904;2023-11-18T02:36:56;98163.94;;;3.19;98.82
72038;BME280;59900;50.788;12.904;2023-11-18T02:39:32;98161.34;;;3.19;98.95
72038;BME280;59900;50.788;12.904;2023-11-18T02:42:01;98163.13;;;3.18;98.99
72038;BME280;59900;50.788;12.904;2023-11-18T02:44:27;98168.19;;;3.20;99.35
72038;BME280;59900;50.788;12.904;2023-11-18T02:46:54;98167.63;;;3.16;99.12
72038;BME280;59900;50.788;12.904;2023-11-18T02:49:20;98167.63;;;3.16;99.31
72038;BME280;59900;50.788;12.904;2023-11-18T02:51:45;98164.88;;;3.18;99.28
72038;BME280;59900;50.788;12.904;2023-11-18T02:54:12;98165.16;;;3.15;99.05
72038;BME280;59900;50.788;12.904;2023-11-18T02:56:38;98174.44;;;3.17;99.55
72038;BME280;59900;50.788;12.904;2023-11-18T02:59:03;98173.66;;;3.17;99.24
72038;BME280;59900;50.788;12.904;2023-11-18T03:01:32;98171.84;;;3.17;99.41
72038;BME280;59900;50.788;12.904;2023-11-18T03:03:59;98165.72;;;3.18;99.73
72038;BME280;59900;50.788;12.904;2023-11-18T03:06:24;98170.78;;;3.20;99.50
72038;BME280;59900;50.788;12.904;2023-11-18T03:08:51;98164.63;;;3.21;99.34
72038;BME280;59900;50.788;12.904;2023-11-18T03:11:17;98170.53;;;3.23;99.40
72038;BME280;59900;50.788;12.904;2023-11-18T03:13:42;98173.91;;;3.23;99.45
72038;BME280;59900;50.788;12.904;2023-11-18T03:16:08;98170.53;;;3.23;99.37
72038;BME280;59900;50.788;12.904;2023-11-18T03:18:39;98168.03;;;3.21;99.50
72038;BME280;59900;50.788;12.904;2023-11-18T03:21:05;98173.25;;;3.21;99.52
72038;BME280;59900;50.788;12.904;2023-11-18T03:23:32;98172.56;;;3.19;99.51
72038;BME280;59900;50.788;12.904;2023-11-18T03:25:57;98172.69;;;3.18;99.68
72038;BME280;59900;50.788;12.904;2023-11-18T03:28:23;98178.59;;;3.20;99.72
72038;BME280;59900;50.788;12.904;2023-11-18T03:30:48;98176.25;;;3.17;99.66
72038;BME280;59900;50.788;12.904;2023-11-18T03:33:14;98173.91;;;3.14;99.79
72038;BME280;59900;50.788;12.904;2023-11-18T03:35:39;98175.81;;;3.12;99.97
72038;BME280;59900;50.788;12.904;2023-11-18T03:38:04;98181.16;;;3.10;100.00
72038;BME280;59900;50.788;12.904;2023-11-18T03:40:29;98182.91;;;3.10;100.00
72038;BME280;59900;50.788;12.904;2023-11-18T03:42:55;98195.06;;;3.09;100.00
72038;BME280;59900;50.788;12.904;2023-11-18T03:45:21;98194.25;;;3.09;100.00
72038;BME280;59900;50.788;12.904;2023-11-18T03:47:48;98198.50;;;3.10;100.00
72038;BME280;59900;50.788;12.904;2023-11-18T03:50:15;98192.75;;;3.06;100.00
72038;BME280;59900;50.788;12.904;2023-11-18T03:52:40;98191.38;;;3.02;100.00
72038;BME280;59900;50.788;12.904;2023-11-18T03:55:06;98196.59;;;3.02;100.00
72038;BME280;59900;50.788;12.904;2023-11-18T03:57:31;98202.03;;;2.99;100.00
72038;BME280;59900;50.788;12.904;2023-11-18T03:59:57;98202.03;;;2.99;100.00
72038;BME280;59900;50.788;12.904;2023-11-18T04:02:22;98200.66;;;2.95;100.00
72038;BME280;59900;50.788;12.904;2023-11-18T04:04:47;98205.16;;;2.93;100.00
72038;BME280;59900;50.788;12.904;2023-11-18T04:07:13;98200.09;;;2.92;100.00
72038;BME280;59900;50.788;12.904;2023-11-18T04:09:39;98206.25;;;2.91;100.00
72038;BME280;59900;50.788;12.904;2023-11-18T04:12:06;98206.38;;;2.89;100.00
72038;BME280;59900;50.788;12.904;2023-11-18T04:14:32;98213.22;;;2.90;100.00
72038;BME280;59900;50.788;12.904;2023-11-18T04:16:58;98216.75;;;2.89;100.00
72038;BME280;59900;50.788;12.904;2023-11-18T04:19:23;98221.94;;;2.89;100.00
72038;BME280;59900;50.788;12.904;2023-11-18T04:21:48;98218.50;;;2.89;100.00
72038;BME280;59900;50.788;12.904;2023-11-18T04:24:15;98216.75;;;2.89;100.00
72038;BME280;59900;50.788;12.904;2023-11-18T04:26:40;98216.63;;;2.91;100.00
72038;BME280;59900;50.788;12.904;2023-11-18T04:29:05;98216.63;;;2.91;100.00
72038;BME280;59900;50.788;12.904;2023-11-18T04:31:31;98220.03;;;2.91;100.00
72038;BME280;59900;50.788;12.904;2023-11-18T04:33:56;98218.25;;;2.92;100.00
72038;BME280;59900;50.788;12.904;2023-11-18T04:36:21;98229.47;;;2.92;100.00
72038;BME280;59900;50.788;12.904;2023-11-18T04:38:47;98226.88;;;2.92;100.00
72038;BME280;59900;50.788;12.904;2023-11-18T04:41:13;98231.22;;;2.92;100.00
72038;BME280;59900;50.788;12.904;2023-11-18T04:43:38;98227.81;;;2.91;100.00
72038;BME280;59900;50.788;12.904;2023-11-18T04:46:05;98230.41;;;2.91;100.00
72038;BME280;59900;50.788;12.904;2023-11-18T04:48:31;98232.31;;;2.89;100.00
72038;BME280;59900;50.788;12.904;2023-11-18T04:50:56;98240.09;;;2.89;100.00
72038;BME280;59900;50.788;12.904;2023-11-18T04:53:21;98229.47;;;2.92;100.00
72038;BME280;59900;50.788;12.904;2023-11-18T04:55:46;98227.69;;;2.93;100.00
72038;BME280;59900;50.788;12.904;2023-11-18T04:58:12;98232.31;;;2.89;99.78
72038;BME280;59900;50.788;12.904;2023-11-18T05:00:37;98230.56;;;2.90;99.66
72038;BME280;59900;50.788;12.904;2023-11-18T05:03:07;98229.03;;;2.87;99.84
72038;BME280;59900;50.788;12.904;2023-11-18T05:05:35;98233.53;;;2.85;99.97
72038;BME280;59900;50.788;12.904;2023-11-18T05:08:03;98226.44;;;2.87;100.00
72038;BME280;59900;50.788;12.904;2023-11-18T05:10:29;98224.94;;;2.85;100.00
72038;BME280;59900;50.788;12.904;2023-11-18T05:12:54;98228.31;;;2.85;100.00
72038;BME280;59900;50.788;12.904;2023-11-18T05:15:22;98237.78;;;2.86;100.00
72038;BME280;59900;50.788;12.904;2023-11-18T05:17:50;98225.75;;;2.85;100.00
72038;BME280;59900;50.788;12.904;2023-11-18T05:20:16;98222.47;;;2.83;100.00
72038;BME280;59900;50.788;12.904;2023-11-18T05:22:41;98217.25;;;2.83;100.00
72038;BME280;59900;50.788;12.904;2023-11-18T05:25:06;98215.63;;;2.82;100.00
72038;BME280;59900;50.788;12.904;2023-11-18T05:27:35;98218.91;;;2.84;100.00
72038;BME280;59900;50.788;12.904;2023-11-18T05:30:01;98224.94;;;2.85;100.00
72038;BME280;59900;50.788;12.904;2023-11-18T05:32:27;98218.78;;;2.86;100.00
72038;BME280;59900;50.788;12.904;2023-11-18T05:34:53;98225.75;;;2.85;100.00
72038;BME280;59900;50.788;12.904;2023-11-18T05:37:20;98226.00;;;2.82;100.00
72038;BME280;59900;50.788;12.904;2023-11-18T05:39:46;98226.00;;;2.82;100.00
72038;BME280;59900;50.788;12.904;2023-11-18T05:42:11;98225.06;;;2.83;100.00
72038;BME280;59900;50.788;12.904;2023-11-18T05:44:37;98231.91;;;2.84;100.00
72038;BME280;59900;50.788;12.904;2023-11-18T05:47:05;98231.91;;;2.84;100.00
72038;BME280;59900;50.788;12.904;2023-11-18T05:49:30;98228.22;;;2.87;100.00
72038;BME280;59900;50.788;12.904;2023-11-18T05:51:56;98237.78;;;2.86;100.00
72038;BME280;59900;50.788;12.904;2023-11-18T05:54:21;98237.78;;;2.86;100.00
72038;BME280;59900;50.788;12.904;2023-11-18T05:56:46;98243.09;;;2.85;100.00
72038;BME280;59900;50.788;12.904;2023-11-18T05:59:11;98245.13;;;2.81;100.00
72038;BME280;59900;50.788;12.904;2023-11-18T06:01:38;98239.94;;;2.81;100.00
72038;BME280;59900;50.788;12.904;2023-11-18T06:04:04;98247.03;;;2.79;100.00
72038;BME280;59900;50.788;12.904;2023-11-18T06:06:29;98247.03;;;2.79;100.00
72038;BME280;59900;50.788;12.904;2023-11-18T06:08:57;98243.63;;;2.78;100.00
72038;BME280;59900;50.788;12.904;2023-11-18T06:11:30;98246.34;;;2.77;100.00
72038;BME280;59900;50.788;12.904;2023-11-18T06:13:57;98235.94;;;2.77;100.00
72038;BME280;59900;50.788;12.904;2023-11-18T06:16:23;98235.00;;;2.78;100.00
72038;BME280;59900;50.788;12.904;2023-11-18T06:18:54;98235.00;;;2.78;100.00
72038;BME280;59900;50.788;12.904;2023-11-18T06:21:24;98234.03;;;2.79;100.00
72038;BME280;59900;50.788;12.904;2023-11-18T06:23:52;98240.06;;;2.79;100.00
72038;BME280;59900;50.788;12.904;2023-11-18T06:26:17;98240.22;;;2.78;100.00
72038;BME280;59900;50.788;12.904;2023-11-18T06:28:46;98231.44;;;2.79;100.00
72038;BME280;59900;50.788;12.904;2023-11-18T06:31:11;98232.16;;;2.81;100.00
72038;BME280;59900;50.788;12.904;2023-11-18T06:33:44;98232.16;;;2.81;100.00
72038;BME280;59900;50.788;12.904;2023-11-18T06:36:16;98232.84;;;2.83;100.00
72038;BME280;59900;50.788;12.904;2023-11-18T06:38:42;98235.44;;;2.83;100.00
72038;BME280;59900;50.788;12.904;2023-11-18T06:41:09;98233.53;;;2.85;100.00
72038;BME280;59900;50.788;12.904;2023-11-18T06:43:41;98239.53;;;2.86;100.00
72038;BME280;59900;50.788;12.904;2023-11-18T06:46:18;98240.38;;;2.86;100.00
72038;BME280;59900;50.788;12.904;2023-11-18T06:48:45;98243.09;;;2.85;100.00
72038;BME280;59900;50.788;12.904;2023-11-18T06:51:11;98248.41;;;2.83;100.00
72038;BME280;59900;50.788;12.904;2023-11-18T06:53:36;98241.19;;;2.87;100.00
72038;BME280;59900;50.788;12.904;2023-11-18T06:56:01;98242.84;;;2.88;100.00
72038;BME280;59900;50.788;12.904;2023-11-18T06:58:27;98243.78;;;2.87;100.00
72038;BME280;59900;50.788;12.904;2023-11-18T07:00:52;98248.03;;;2.88;100.00
72038;BME280;59900;50.788;12.904;2023-11-18T07:03:18;98241.31;;;2.85;100.00
72038;BME280;59900;50.788;12.904;2023-11-18T07:05:43;98244.88;;;2.84;100.00
72038;BME280;59900;50.788;12.904;2023-11-18T07:08:09;98252.66;;;2.84;100.00
72038;BME280;59900;50.788;12.904;2023-11-18T07:10:34;98246.50;;;2.85;100.00
72038;BME280;59900;50.788;12.904;2023-11-18T07:13:03;98249.81;;;2.87;100.00
72038;BME280;59900;50.788;12.904;2023-11-18T07:15:28;98254.84;;;2.89;100.00
72038;BME280;59900;50.788;12.904;2023-11-18T07:17:53;98251.31;;;2.90;100.00
72038;BME280;59900;50.788;12.904;2023-11-18T07:20:19;98254.03;;;2.88;100.00
72038;BME280;59900;50.788;12.904;2023-11-18T07:22:44;98260.03;;;2.89;100.00
72038;BME280;59900;50.788;12.904;2023-11-18T07:25:10;98269.59;;;2.88;100.00
72038;BME280;59900;50.788;12.904;2023-11-18T07:27:36;98273.16;;;2.87;100.00
72038;BME280;59900;50.788;12.904;2023-11-18T07:30:01;98274.78;;;2.88;100.00
72038;BME280;59900;50.788;12.904;2023-11-18T07:32:28;98273.84;;;2.89;100.00
72038;BME280;59900;50.788;12.904;2023-11-18T07:34:53;98287.41;;;2.93;100.00
72038;BME280;59900;50.788;12.904;2023-11-18T07:37:20;98280.56;;;2.92;100.00
72038;BME280;59900;50.788;12.904;2023-11-18T07:39:46;98292.59;;;2.93;100.00
72038;BME280;59900;50.788;12.904;2023-11-18T07:42:13;98285.88;;;2.90;100.00
72038;BME280;59900;50.788;12.904;2023-11-18T07:44:40;98296.00;;;2.93;100.00
72038;BME280;59900;50.788;12.904;2023-11-18T07:47:05;98299.97;;;2.97;100.00
72038;BME280;59900;50.788;12.904;2023-11-18T07:49:31;98292.38;;;3.05;100.00
72038;BME280;59900;50.788;12.904;2023-11-18T07:51:56;98298.16;;;3.18;100.00
72038;BME280;59900;50.788;12.904;2023-11-18T07:54:22;98305.44;;;3.24;99.39
72038;BME280;59900;50.788;12.904;2023-11-18T07:56:49;98291.91;;;3.30;98.93
72038;BME280;59900;50.788;12.904;2023-11-18T07:59:14;98299.16;;;3.27;98.00
72038;BME280;59900;50.788;12.904;2023-11-18T08:01:41;98301.19;;;3.23;97.67
72038;BME280;59900;50.788;12.904;2023-11-18T08:04:09;98314.44;;;3.20;97.29
72038;BME280;59900;50.788;12.904;2023-11-18T08:06:35;98314.56;;;3.19;98.07
72038;BME280;59900;50.788;12.904;2023-11-18T08:09:00;98311.97;;;3.19;98.18
72038;BME280;59900;50.788;12.904;2023-11-18T08:11:25;98313.88;;;3.17;98.11
72038;BME280;59900;50.788;12.904;2023-11-18T08:13:51;98314.84;;;3.16;97.88
72038;BME280;59900;50.788;12.904;2023-11-18T08:16:16;98310.47;;;3.16;98.01
72038;BME280;59900;50.788;12.904;2023-11-18T08:18:41;98320.84;;;3.16;97.97
72038;BME280;59900;50.788;12.904;2023-11-18T08:21:07;98320.72;;;3.18;98.39
72038;BME280;59900;50.788;12.904;2023-11-18T08:23:32;98327.81;;;3.16;98.08
72038;BME280;59900;50.788;12.904;2023-11-18T08:25:57;98333.69;;;3.18;98.08
72038;BME280;59900;50.788;12.904;2023-11-18T08:28:24;98327.28;;;3.22;98.25
72038;BME280;59900;50.788;12.904;2023-11-18T08:30:49;98322.94;;;3.22;97.67
72038;BME280;59900;50.788;12.904;2023-11-18T08:33:16;98321.00;;;3.24;97.57
72038;BME280;59900;50.788;12.904;2023-11-18T08:35:42;98315.66;;;3.26;97.46
72038;BME280;59900;50.788;12.904;2023-11-18T08:38:07;98324.28;;;3.26;97.59
72038;BME280;59900;50.788;12.904;2023-11-18T08:40:33;98317.31;;;3.27;97.13
72038;BME280;59900;50.788;12.904;2023-11-18T08:42:59;98320.88;;;3.26;97.15
72038;BME280;59900;50.788;12.904;2023-11-18T08:45:27;98323.78;;;3.32;97.22
72038;BME280;59900;50.788;12.904;2023-11-18T08:47:57;98325.44;;;3.33;97.05
72038;BME280;59900;50.788;12.904;2023-11-18T08:50:23;98333.06;;;3.35;96.75
72038;BME280;59900;50.788;12.904;2023-11-18T08:52:50;98334.31;;;3.40;96.81
72038;BME280;59900;50.788;12.904;2023-11-18T08:55:18;98327.25;;;3.43;97.17
72038;BME280;59900;50.788;12.904;2023-11-18T08:57:47;98322.03;;;3.43;96.83
72038;BME280;59900;50.788;12.904;2023-11-18T09:00:36;98309.16;;;3.41;96.39
72038;BME280;59900;50.788;12.904;2023-11-18T09:03:13;98308.78;;;3.46;96.80
72038;BME280;59900;50.788;12.904;2023-11-18T09:06:06;98305.66;;;3.52;96.74
72038;BME280;59900;50.788;12.904;2023-11-18T09:08:42;98313.19;;;3.55;96.44
72038;BME280;59900;50.788;12.904;2023-11-18T09:11:13;98317.72;;;3.62;96.15
72038;BME280;59900;50.788;12.904;2023-11-18T09:13:46;98323.84;;;3.61;95.19
72038;BME280;59900;50.788;12.904;2023-11-18T09:16:13;98318.94;;;3.68;95.78
72038;BME280;59900;50.788;12.904;2023-11-18T09:18:40;98315.56;;;3.77;95.48
72038;BME280;59900;50.788;12.904;2023-11-18T09:21:06;98320.19;;;3.73;95.00
72038;BME280;59900;50.788;12.904;2023-11-18T09:23:34;98340.03;;;3.74;95.09
72038;BME280;59900;50.788;12.904;2023-11-18T09:26:03;98332.09;;;3.76;95.27
72038;BME280;59900;50.788;12.904;2023-11-18T09:28:33;98332.53;;;3.81;95.21
72038;BME280;59900;50.788;12.904;2023-11-18T09:31:00;98336.38;;;3.86;95.10
72038;BME280;59900;50.788;12.904;2023-11-18T09:33:29;98338.81;;;3.88;94.59
72038;BME280;59900;50.788;12.904;2023-11-18T09:36:07;98335.97;;;3.91;93.97
72038;BME280;59900;50.788;12.904;2023-11-18T09:38:34;98342.66;;;3.93;93.91
72038;BME280;59900;50.788;12.904;2023-11-18T09:41:06;98337.34;;;3.95;93.50
72038;BME280;59900;50.788;12.904;2023-11-18T09:43:43;98342.94;;;3.90;92.94
72038;BME280;59900;50.788;12.904;2023-11-18T09:46:11;98338.28;;;3.94;92.69
72038;BME280;59900;50.788;12.904;2023-11-18T09:48:47;98332.00;;;3.96;92.66
72038;BME280;59900;50.788;12.904;2023-11-18T09:51:20;98328.59;;;3.96;93.41
72038;BME280;59900;50.788;12.904;2023-11-18T09:53:51;98330.09;;;3.99;92.79
72038;BME280;59900;50.788;12.904;2023-11-18T09:56:30;98338.56;;;4.01;92.91
72038;BME280;59900;50.788;12.904;2023-11-18T09:59:15;98340.09;;;4.03;92.84
72038;BME280;59900;50.788;12.904;2023-11-18T10:01:48;98341.84;;;4.03;92.74
72038;BME280;59900;50.788;12.904;2023-11-18T10:04:16;98344.34;;;4.04;92.71
72038;BME280;59900;50.788;12.904;2023-11-18T10:06:44;98342.97;;;4.10;92.62
72038;BME280;59900;50.788;12.904;2023-11-18T10:09:10;98348.03;;;4.11;92.50
72038;BME280;59900;50.788;12.904;2023-11-18T10:11:43;98350.09;;;4.08;92.17
72038;BME280;59900;50.788;12.904;2023-11-18T10:14:12;98359.66;;;4.07;92.26
72038;BME280;59900;50.788;12.904;2023-11-18T10:16:41;98351.31;;;4.04;92.18
72038;BME280;59900;50.788;12.904;2023-11-18T10:19:07;98345.00;;;4.06;92.49
72038;BME280;59900;50.788;12.904;2023-11-18T10:21:37;98342.81;;;4.11;92.26
72038;BME280;59900;50.788;12.904;2023-11-18T10:24:08;98344.88;;;4.17;92.32
72038;BME280;59900;50.788;12.904;2023-11-18T10:26:43;98342.97;;;4.19;92.11
72038;BME280;59900;50.788;12.904;2023-11-18T10:29:10;98338.03;;;4.26;92.30
72038;BME280;59900;50.788;12.904;2023-11-18T10:31:38;98335.03;;;4.30;91.70
72038;BME280;59900;50.788;12.904;2023-11-18T10:34:13;98323.09;;;4.37;91.28
72038;BME280;59900;50.788;12.904;2023-11-18T10:36:41;98317.63;;;4.40;90.54
72038;BME280;59900;50.788;12.904;2023-11-18T10:39:11;98314.06;;;4.41;90.58
72038;BME280;59900;50.788;12.904;2023-11-18T10:41:42;98316.13;;;4.47;90.33
72038;BME280;59900;50.788;12.904;2023-11-18T10:44:09;98308.88;;;4.51;90.61
72038;BME280;59900;50.788;12.904;2023-11-18T10:46:39;98306.38;;;4.49;89.37
72038;BME280;59900;50.788;12.904;2023-11-18T10:49:05;98307.50;;;4.47;88.99
72038;BME280;59900;50.788;12.904;2023-11-18T10:51:35;98304.34;;;4.43;88.78
72038;BME280;59900;50.788;12.904;2023-11-18T10:54:00;98301.88;;;4.42;88.97
72038;BME280;59900;50.788;12.904;2023-11-18T10:56:29;98304.50;;;4.42;89.34
72038;BME280;59900;50.788;12.904;2023-11-18T10:59:05;98306.53;;;4.48;89.66
72038;BME280;59900;50.788;12.904;2023-11-18T11:01:35;98311.03;;;4.56;89.25
72038;BME280;59900;50.788;12.904;2023-11-18T11:04:10;98314.19;;;4.59;88.22
72038;BME280;59900;50.788;12.904;2023-11-18T11:06:41;98302.78;;;4.70;88.33
72038;BME280;59900;50.788;12.904;2023-11-18T11:09:08;98316.91;;;4.77;86.91
72038;BME280;59900;50.788;12.904;2023-11-18T11:11:58;98319.66;;;4.75;86.01
72038;BME280;59900;50.788;12.904;2023-11-18T11:14:32;98322.38;;;4.74;85.92
72038;BME280;59900;50.788;12.904;2023-11-18T11:17:15;98320.06;;;4.71;85.41
72038;BME280;59900;50.788;12.904;2023-11-18T11:19:53;98303.38;;;4.64;85.22
72038;BME280;59900;50.788;12.904;2023-11-18T11:22:38;98314.75;;;4.63;85.61
72038;BME280;59900;50.788;12.904;2023-11-18T11:25:16;98305.97;;;4.64;86.57
72038;BME280;59900;50.788;12.904;2023-11-18T11:28:22;98305.94;;;4.73;86.30
72038;BME280;59900;50.788;12.904;2023-11-18T11:30:55;98310.03;;;4.76;85.33
72038;BME280;59900;50.788;12.904;2023-11-18T11:33:46;98307.97;;;4.79;85.41
72038;BME280;59900;50.788;12.904;2023-11-18T11:36:17;98304.44;;;4.80;84.42
72038;BME280;59900;50.788;12.904;2023-11-18T11:38:50;98299.06;;;4.82;84.14
72038;BME280;59900;50.788;12.904;2023-11-18T11:41:17;98300.44;;;4.76;84.04
72038;BME280;59900;50.788;12.904;2023-11-18T11:43:51;98291.81;;;4.76;84.76
72038;BME280;59900;50.788;12.904;2023-11-18T11:46:21;98298.69;;;4.77;84.13
72038;BME280;59900;50.788;12.904;2023-11-18T11:48:49;98298.00;;;4.75;83.69
72038;BME280;59900;50.788;12.904;2023-11-18T11:51:41;98292.63;;;4.76;83.76
72038;BME280;59900;50.788;12.904;2023-11-18T11:54:12;98287.16;;;4.79;83.17
72038;BME280;59900;50.788;12.904;2023-11-18T11:56:49;98282.22;;;4.86;83.33
72038;BME280;59900;50.788;12.904;2023-11-18T11:59:17;98280.44;;;4.86;82.82
72038;BME280;59900;50.788;12.904;2023-11-18T12:01:54;98262.47;;;4.83;82.95
72038;BME280;59900;50.788;12.904;2023-11-18T12:04:23;98270.13;;;4.85;82.57
72038;BME280;59900;50.788;12.904;2023-11-18T12:06:53;98261.00;;;4.81;82.60
72038;BME280;59900;50.788;12.904;2023-11-18T12:09:21;98258.22;;;4.82;82.88
72038;BME280;59900;50.788;12.904;2023-11-18T12:11:47;98254.38;;;4.86;82.36
72038;BME280;59900;50.788;12.904;2023-11-18T12:14:14;98253.41;;;4.87;81.36
72038;BME280;59900;50.788;12.904;2023-11-18T12:17:05;98250.50;;;4.90;81.88
72038;BME280;59900;50.788;12.904;2023-11-18T12:19:47;98239.31;;;4.90;81.69
72038;BME280;59900;50.788;12.904;2023-11-18T12:22:15;98234.09;;;4.90;80.97
72038;BME280;59900;50.788;12.904;2023-11-18T12:35:22;98196.94;;;5.60;77.48
72038;BME280;59900;50.788;12.904;2023-11-18T12:38:13;98192.03;;;5.57;77.68
72038;BME280;59900;50.788;12.904;2023-11-18T12:40:56;98198.13;;;5.65;78.29
72038;BME280;59900;50.788;12.904;2023-11-18T12:46:47;98186.81;;;5.75;78.39
72038;BME280;59900;50.788;12.904;2023-11-18T12:49:15;98182.44;;;5.93;78.46
72038;BME280;59900;50.788;12.904;2023-11-18T12:51:42;98185.81;;;6.11;78.29
72038;BME280;59900;50.788;12.904;2023-11-18T12:54:09;98179.13;;;6.34;78.18
72038;BME280;59900;50.788;12.904;2023-11-18T12:56:39;98178.66;;;6.64;77.53
72038;BME280;59900;50.788;12.904;2023-11-18T12:59:05;98175.69;;;6.93;76.17
72038;BME280;59900;50.788;12.904;2023-11-18T13:01:32;98171.25;;;7.27;74.33
72038;BME280;59900;50.788;12.904;2023-11-18T13:04:02;98164.44;;;7.51;73.47
72038;BME280;59900;50.788;12.904;2023-11-18T13:06:27;98155.28;;;7.63;72.01
72038;BME280;59900;50.788;12.904;2023-11-18T13:08:53;98151.19;;;7.60;70.07
72038;BME280;59900;50.788;12.904;2023-11-18T13:11:21;98143.97;;;7.46;70.09
72038;BME280;59900;50.788;12.904;2023-11-18T13:13:49;98149.00;;;7.31;71.14